sensor_id;sensor_type;location;lat;lon;timestamp;P1;durP1;ratioP1;P2;durP2;ratioP2
8312;SDS011;4194;43.408;24.626;2024-01-15T00:02:01;20.90;;;10.10;;
8312;SDS011;4194;43.408;24.626;2024-01-15T00:04:28;16.10;;;8.53;;
8312;SDS011;4194;43.408;24.626;2024-01-15T00:06:54;10.97;;;6.60;;
8312;SDS011;4194;43.408;24.626;2024-01-15T00:09:19;12.77;;;6.53;;
8312;SDS011;4194;43.408;24.626;2024-01-15T00:11:45;12.67;;;7.97;;
8312;SDS011;4194;43.408;24.626;2024-01-15T00:14:11;13.37;;;7.60;;
8312;SDS011;4194;43.408;24.626;2024-01-15T00:16:40;12.13;;;7.20;;
8312;SDS011;4194;43.408;24.626;2024-01-15T00:19:06;9.13;;;5.97;;
8312;SDS011;4194;43.408;24.626;2024-01-15T00:21:31;10.20;;;6.40;;
8312;SDS011;4194;43.408;24.626;2024-01-15T00:23:57;13.40;;;7.33;;
8312;SDS011;4194;43.408;24.626;2024-01-15T00:26:23;15.93;;;8.27;;
8312;SDS011;4194;43.408;24.626;2024-01-15T00:28:48;12.27;;;7.17;;
8312;SDS011;4194;43.408;24.626;2024-01-15T00:31:15;11.60;;;6.00;;
8312;SDS011;4194;43.408;24.626;2024-01-15T00:33:42;13.70;;;6.87;;
8312;SDS011;4194;43.408;24.626;2024-01-15T00:36:08;11.83;;;6.33;;
8312;SDS011;4194;43.408;24.626;2024-01-15T00:38:33;10.30;;;5.67;;
8312;SDS011;4194;43.408;24.626;2024-01-15T00:40:59;10.60;;;5.40;;
8312;SDS011;4194;43.408;24.626;2024-01-15T00:43:25;9.00;;;5.20;;
8312;SDS011;4194;43.408;24.626;2024-01-15T00:45:50;9.73;;;6.07;;
8312;SDS011;4194;43.408;24.626;2024-01-15T00:48:16;7.53;;;5.00;;
8312;SDS011;4194;43.408;24.626;2024-01-15T00:50:41;10.30;;;6.13;;
8312;SDS011;4194;43.408;24.626;2024-01-15T00:53:07;10.07;;;6.67;;
8312;SDS011;4194;43.408;24.626;2024-01-15T00:55:33;12.20;;;6.03;;
8312;SDS011;4194;43.408;24.626;2024-01-15T00:57:58;13.43;;;7.20;;
8312;SDS011;4194;43.408;24.626;2024-01-15T01:00:24;11.77;;;7.20;;
8312;SDS011;4194;43.408;24.626;2024-01-15T01:02:50;11.07;;;6.60;;
8312;SDS011;4194;43.408;24.626;2024-01-15T01:05:15;12.10;;;7.30;;
8312;SDS011;4194;43.408;24.626;2024-01-15T01:07:41;15.73;;;7.77;;
8312;SDS011;4194;43.408;24.626;2024-01-15T01:10:07;14.43;;;8.47;;
8312;SDS011;4194;43.408;24.626;2024-01-15T01:12:32;12.67;;;6.83;;
8312;SDS011;4194;43.408;24.626;2024-01-15T01:14:58;10.17;;;6.37;;
8312;SDS011;4194;43.408;24.626;2024-01-15T01:17:24;13.77;;;6.50;;
8312;SDS011;4194;43.408;24.626;2024-01-15T01:19:50;13.13;;;6.80;;
8312;SDS011;4194;43.408;24.626;2024-01-15T01:22:16;12.23;;;7.43;;
8312;SDS011;4194;43.408;24.626;2024-01-15T01:24:42;15.30;;;8.83;;
8312;SDS011;4194;43.408;24.626;2024-01-15T01:27:07;15.07;;;8.33;;
8312;SDS011;4194;43.408;24.626;2024-01-15T01:29:33;10.17;;;6.30;;
8312;SDS011;4194;43.408;24.626;2024-01-15T01:31:59;11.37;;;6.73;;
8312;SDS011;4194;43.408;24.626;2024-01-15T01:34:24;13.80;;;6.77;;
8312;SDS011;4194;43.408;24.626;2024-01-15T01:36:50;9.97;;;5.90;;
8312;SDS011;4194;43.408;24.626;2024-01-15T01:39:16;13.53;;;7.13;;
8312;SDS011;4194;43.408;24.626;2024-01-15T01:41:41;15.33;;;7.93;;
8312;SDS011;4194;43.408;24.626;2024-01-15T01:44:07;11.80;;;7.43;;
8312;SDS011;4194;43.408;24.626;2024-01-15T01:46:33;14.30;;;6.83;;
8312;SDS011;4194;43.408;24.626;2024-01-15T01:49:04;13.00;;;7.10;;
8312;SDS011;4194;43.408;24.626;2024-01-15T01:51:31;11.33;;;6.47;;
8312;SDS011;4194;43.408;24.626;2024-01-15T01:53:58;11.07;;;7.20;;
8312;SDS011;4194;43.408;24.626;2024-01-15T01:56:24;9.93;;;6.70;;
8312;SDS011;4194;43.408;24.626;2024-01-15T01:58:50;11.73;;;7.27;;
8312;SDS011;4194;43.408;24.626;2024-01-15T02:01:16;11.17;;;6.57;;
8312;SDS011;4194;43.408;24.626;2024-01-15T02:03:43;11.47;;;6.43;;
8312;SDS011;4194;43.408;24.626;2024-01-15T02:06:09;12.33;;;6.67;;
8312;SDS011;4194;43.408;24.626;2024-01-15T02:08:35;12.10;;;6.20;;
8312;SDS011;4194;43.408;24.626;2024-01-15T02:11:01;14.43;;;6.33;;
8312;SDS011;4194;43.408;24.626;2024-01-15T02:13:27;8.50;;;5.83;;
8312;SDS011;4194;43.408;24.626;2024-01-15T02:15:52;11.33;;;6.67;;
8312;SDS011;4194;43.408;24.626;2024-01-15T02:18:18;12.80;;;6.70;;
8312;SDS011;4194;43.408;24.626;2024-01-15T02:20:45;8.53;;;5.30;;
8312;SDS011;4194;43.408;24.626;2024-01-15T02:23:11;11.20;;;6.23;;
8312;SDS011;4194;43.408;24.626;2024-01-15T02:25:42;8.73;;;5.83;;
8312;SDS011;4194;43.408;24.626;2024-01-15T02:28:10;9.77;;;6.17;;
8312;SDS011;4194;43.408;24.626;2024-01-15T02:30:37;9.80;;;5.63;;
8312;SDS011;4194;43.408;24.626;2024-01-15T02:33:04;10.57;;;6.40;;
8312;SDS011;4194;43.408;24.626;2024-01-15T02:35:31;12.40;;;6.47;;
8312;SDS011;4194;43.408;24.626;2024-01-15T02:37:56;9.43;;;7.03;;
8312;SDS011;4194;43.408;24.626;2024-01-15T02:40:22;11.67;;;7.13;;
8312;SDS011;4194;43.408;24.626;2024-01-15T02:42:48;12.23;;;7.47;;
8312;SDS011;4194;43.408;24.626;2024-01-15T02:45:13;15.30;;;8.20;;
8312;SDS011;4194;43.408;24.626;2024-01-15T02:47:39;16.47;;;9.77;;
8312;SDS011;4194;43.408;24.626;2024-01-15T02:50:05;23.07;;;13.67;;
8312;SDS011;4194;43.408;24.626;2024-01-15T02:52:31;27.83;;;16.30;;
8312;SDS011;4194;43.408;24.626;2024-01-15T02:54:57;19.07;;;11.03;;
8312;SDS011;4194;43.408;24.626;2024-01-15T02:57:23;19.57;;;10.77;;
8312;SDS011;4194;43.408;24.626;2024-01-15T02:59:48;18.00;;;9.80;;
8312;SDS011;4194;43.408;24.626;2024-01-15T03:02:14;13.97;;;8.97;;
8312;SDS011;4194;43.408;24.626;2024-01-15T03:04:46;15.93;;;8.57;;
8312;SDS011;4194;43.408;24.626;2024-01-15T03:07:11;15.07;;;8.53;;
8312;SDS011;4194;43.408;24.626;2024-01-15T03:09:39;15.27;;;8.13;;
8312;SDS011;4194;43.408;24.626;2024-01-15T03:12:05;12.77;;;7.57;;
8312;SDS011;4194;43.408;24.626;2024-01-15T03:14:31;10.53;;;6.83;;
8312;SDS011;4194;43.408;24.626;2024-01-15T03:16:57;13.20;;;7.77;;
8312;SDS011;4194;43.408;24.626;2024-01-15T03:19:22;10.83;;;6.57;;
8312;SDS011;4194;43.408;24.626;2024-01-15T03:21:48;10.17;;;6.60;;
8312;SDS011;4194;43.408;24.626;2024-01-15T03:24:14;9.90;;;6.30;;
8312;SDS011;4194;43.408;24.626;2024-01-15T03:26:39;15.43;;;9.80;;
8312;SDS011;4194;43.408;24.626;2024-01-15T03:29:05;18.17;;;11.67;;
8312;SDS011;4194;43.408;24.626;2024-01-15T03:31:32;14.97;;;9.93;;
8312;SDS011;4194;43.408;24.626;2024-01-15T03:33:58;14.87;;;8.43;;
8312;SDS011;4194;43.408;24.626;2024-01-15T03:36:23;15.17;;;8.63;;
8312;SDS011;4194;43.408;24.626;2024-01-15T03:38:50;12.27;;;7.70;;
8312;SDS011;4194;43.408;24.626;2024-01-15T03:41:16;10.30;;;6.77;;
8312;SDS011;4194;43.408;24.626;2024-01-15T03:43:42;14.53;;;6.37;;
8312;SDS011;4194;43.408;24.626;2024-01-15T03:46:08;14.87;;;6.77;;
8312;SDS011;4194;43.408;24.626;2024-01-15T03:48:34;10.13;;;6.23;;
8312;SDS011;4194;43.408;24.626;2024-01-15T03:51:00;10.47;;;6.50;;
8312;SDS011;4194;43.408;24.626;2024-01-15T03:53:25;9.40;;;5.60;;
8312;SDS011;4194;43.408;24.626;2024-01-15T03:55:51;11.30;;;6.57;;
8312;SDS011;4194;43.408;24.626;2024-01-15T03:58:17;9.77;;;6.00;;
8312;SDS011;4194;43.408;24.626;2024-01-15T04:00:43;9.00;;;5.83;;
8312;SDS011;4194;43.408;24.626;2024-01-15T04:03:08;8.47;;;5.50;;
8312;SDS011;4194;43.408;24.626;2024-01-15T04:05:34;9.60;;;6.33;;
8312;SDS011;4194;43.408;24.626;2024-01-15T04:08:00;10.77;;;6.30;;
8312;SDS011;4194;43.408;24.626;2024-01-15T04:10:26;10.50;;;6.30;;
8312;SDS011;4194;43.408;24.626;2024-01-15T04:12:52;10.67;;;6.97;;
8312;SDS011;4194;43.408;24.626;2024-01-15T04:15:17;11.23;;;7.10;;
8312;SDS011;4194;43.408;24.626;2024-01-15T04:17:43;10.40;;;6.67;;
8312;SDS011;4194;43.408;24.626;2024-01-15T04:20:09;10.40;;;6.83;;
8312;SDS011;4194;43.408;24.626;2024-01-15T04:22:36;9.57;;;6.93;;
8312;SDS011;4194;43.408;24.626;2024-01-15T04:25:02;9.10;;;6.80;;
8312;SDS011;4194;43.408;24.626;2024-01-15T04:27:28;8.30;;;6.73;;
8312;SDS011;4194;43.408;24.626;2024-01-15T04:29:54;9.50;;;6.17;;
8312;SDS011;4194;43.408;24.626;2024-01-15T04:32:20;8.77;;;6.10;;
8312;SDS011;4194;43.408;24.626;2024-01-15T04:34:45;8.60;;;6.50;;
8312;SDS011;4194;43.408;24.626;2024-01-15T04:37:11;7.37;;;6.50;;
8312;SDS011;4194;43.408;24.626;2024-01-15T04:39:38;7.90;;;5.30;;
8312;SDS011;4194;43.408;24.626;2024-01-15T04:42:04;8.53;;;5.73;;
8312;SDS011;4194;43.408;24.626;2024-01-15T04:44:30;9.33;;;6.83;;
8312;SDS011;4194;43.408;24.626;2024-01-15T04:46:55;11.53;;;6.90;;
8312;SDS011;4194;43.408;24.626;2024-01-15T04:49:21;10.63;;;7.60;;
8312;SDS011;4194;43.408;24.626;2024-01-15T04:51:47;10.83;;;7.50;;
8312;SDS011;4194;43.408;24.626;2024-01-15T04:54:12;9.33;;;6.83;;
8312;SDS011;4194;43.408;24.626;2024-01-15T04:56:42;8.57;;;6.53;;
8312;SDS011;4194;43.408;24.626;2024-01-15T04:59:08;11.53;;;6.67;;
8312;SDS011;4194;43.408;24.626;2024-01-15T05:01:34;9.63;;;6.43;;
8312;SDS011;4194;43.408;24.626;2024-01-15T05:04:00;10.63;;;5.87;;
8312;SDS011;4194;43.408;24.626;2024-01-15T05:06:26;8.47;;;6.27;;
8312;SDS011;4194;43.408;24.626;2024-01-15T05:08:51;22.00;;;14.47;;
8312;SDS011;4194;43.408;24.626;2024-01-15T05:11:17;15.07;;;10.23;;
8312;SDS011;4194;43.408;24.626;2024-01-15T05:13:43;13.20;;;7.73;;
8312;SDS011;4194;43.408;24.626;2024-01-15T05:16:09;11.13;;;7.17;;
8312;SDS011;4194;43.408;24.626;2024-01-15T05:18:34;9.13;;;6.97;;
8312;SDS011;4194;43.408;24.626;2024-01-15T05:21:02;10.63;;;6.83;;
8312;SDS011;4194;43.408;24.626;2024-01-15T05:23:28;12.33;;;7.97;;
8312;SDS011;4194;43.408;24.626;2024-01-15T05:25:54;17.37;;;10.47;;
8312;SDS011;4194;43.408;24.626;2024-01-15T05:28:19;16.40;;;9.90;;
8312;SDS011;4194;43.408;24.626;2024-01-15T05:30:45;17.97;;;11.30;;
8312;SDS011;4194;43.408;24.626;2024-01-15T05:33:11;15.57;;;10.10;;
8312;SDS011;4194;43.408;24.626;2024-01-15T05:35:36;14.70;;;9.30;;
8312;SDS011;4194;43.408;24.626;2024-01-15T05:38:02;16.13;;;9.73;;
8312;SDS011;4194;43.408;24.626;2024-01-15T05:40:28;17.50;;;10.70;;
8312;SDS011;4194;43.408;24.626;2024-01-15T05:42:53;16.07;;;10.37;;
8312;SDS011;4194;43.408;24.626;2024-01-15T05:45:19;16.47;;;9.57;;
8312;SDS011;4194;43.408;24.626;2024-01-15T05:47:45;13.97;;;8.87;;
8312;SDS011;4194;43.408;24.626;2024-01-15T05:50:10;17.47;;;9.00;;
8312;SDS011;4194;43.408;24.626;2024-01-15T05:52:36;11.17;;;8.33;;
8312;SDS011;4194;43.408;24.626;2024-01-15T05:55:02;17.80;;;11.03;;
8312;SDS011;4194;43.408;24.626;2024-01-15T05:57:28;21.83;;;12.13;;
8312;SDS011;4194;43.408;24.626;2024-01-15T05:59:53;19.37;;;11.33;;
8312;SDS011;4194;43.408;24.626;2024-01-15T06:02:19;20.83;;;11.93;;
8312;SDS011;4194;43.408;24.626;2024-01-15T06:04:45;21.03;;;12.20;;
8312;SDS011;4194;43.408;24.626;2024-01-15T06:07:11;24.40;;;13.73;;
8312;SDS011;4194;43.408;24.626;2024-01-15T06:09:37;32.60;;;17.77;;
8312;SDS011;4194;43.408;24.626;2024-01-15T06:12:03;33.10;;;18.90;;
8312;SDS011;4194;43.408;24.626;2024-01-15T06:14:29;41.30;;;21.13;;
8312;SDS011;4194;43.408;24.626;2024-01-15T06:16:55;38.53;;;21.40;;
8312;SDS011;4194;43.408;24.626;2024-01-15T06:19:21;42.67;;;22.20;;
8312;SDS011;4194;43.408;24.626;2024-01-15T06:21:46;41.10;;;22.80;;
8312;SDS011;4194;43.408;24.626;2024-01-15T06:24:12;51.27;;;24.73;;
8312;SDS011;4194;43.408;24.626;2024-01-15T06:26:38;45.80;;;24.37;;
8312;SDS011;4194;43.408;24.626;2024-01-15T06:29:04;42.67;;;23.43;;
8312;SDS011;4194;43.408;24.626;2024-01-15T06:31:30;43.17;;;24.53;;
8312;SDS011;4194;43.408;24.626;2024-01-15T06:33:55;40.40;;;21.57;;
8312;SDS011;4194;43.408;24.626;2024-01-15T06:36:21;42.07;;;22.20;;
8312;SDS011;4194;43.408;24.626;2024-01-15T06:38:47;36.00;;;20.57;;
8312;SDS011;4194;43.408;24.626;2024-01-15T06:41:13;33.33;;;18.97;;
8312;SDS011;4194;43.408;24.626;2024-01-15T06:43:38;28.92;;;18.90;;
8312;SDS011;4194;43.408;24.626;2024-01-15T06:46:04;25.23;;;14.67;;
8312;SDS011;4194;43.408;24.626;2024-01-15T06:48:30;21.40;;;13.70;;
8312;SDS011;4194;43.408;24.626;2024-01-15T06:50:56;27.60;;;15.63;;
8312;SDS011;4194;43.408;24.626;2024-01-15T06:53:21;22.20;;;14.47;;
8312;SDS011;4194;43.408;24.626;2024-01-15T06:55:48;23.60;;;13.87;;
8312;SDS011;4194;43.408;24.626;2024-01-15T06:58:14;22.27;;;14.47;;
8312;SDS011;4194;43.408;24.626;2024-01-15T07:00:40;26.40;;;15.90;;
8312;SDS011;4194;43.408;24.626;2024-01-15T07:03:05;24.27;;;15.50;;
8312;SDS011;4194;43.408;24.626;2024-01-15T07:05:31;25.47;;;16.80;;
8312;SDS011;4194;43.408;24.626;2024-01-15T07:07:57;25.30;;;16.20;;
8312;SDS011;4194;43.408;24.626;2024-01-15T07:10:23;28.60;;;17.13;;
8312;SDS011;4194;43.408;24.626;2024-01-15T07:12:48;55.57;;;29.00;;
8312;SDS011;4194;43.408;24.626;2024-01-15T07:15:14;87.57;;;46.83;;
8312;SDS011;4194;43.408;24.626;2024-01-15T07:17:40;125.07;;;68.80;;
8312;SDS011;4194;43.408;24.626;2024-01-15T07:20:07;164.97;;;101.80;;
8312;SDS011;4194;43.408;24.626;2024-01-15T07:22:35;135.97;;;82.33;;
8312;SDS011;4194;43.408;24.626;2024-01-15T07:25:01;113.10;;;70.07;;
8312;SDS011;4194;43.408;24.626;2024-01-15T07:27:27;79.50;;;49.90;;
8312;SDS011;4194;43.408;24.626;2024-01-15T07:29:52;68.20;;;41.93;;
8312;SDS011;4194;43.408;24.626;2024-01-15T07:32:18;52.73;;;33.00;;
8312;SDS011;4194;43.408;24.626;2024-01-15T07:34:45;46.57;;;29.77;;
8312;SDS011;4194;43.408;24.626;2024-01-15T07:37:11;48.13;;;29.13;;
8312;SDS011;4194;43.408;24.626;2024-01-15T07:39:36;54.67;;;29.70;;
8312;SDS011;4194;43.408;24.626;2024-01-15T07:42:03;56.67;;;31.47;;
8312;SDS011;4194;43.408;24.626;2024-01-15T07:44:29;77.03;;;40.77;;
8312;SDS011;4194;43.408;24.626;2024-01-15T07:46:54;60.87;;;32.17;;
8312;SDS011;4194;43.408;24.626;2024-01-15T07:49:20;51.40;;;30.30;;
8312;SDS011;4194;43.408;24.626;2024-01-15T07:51:46;47.83;;;24.03;;
8312;SDS011;4194;43.408;24.626;2024-01-15T07:54:11;34.87;;;20.13;;
8312;SDS011;4194;43.408;24.626;2024-01-15T07:56:53;21.63;;;10.90;;
8312;SDS011;4194;43.408;24.626;2024-01-15T07:59:19;21.87;;;14.20;;
8312;SDS011;4194;43.408;24.626;2024-01-15T08:01:45;25.80;;;13.57;;
8312;SDS011;4194;43.408;24.626;2024-01-15T08:04:12;24.90;;;14.53;;
8312;SDS011;4194;43.408;24.626;2024-01-15T08:06:39;21.23;;;13.27;;
8312;SDS011;4194;43.408;24.626;2024-01-15T08:09:05;22.07;;;12.77;;
8312;SDS011;4194;43.408;24.626;2024-01-15T08:11:31;22.17;;;13.63;;
8312;SDS011;4194;43.408;24.626;2024-01-15T08:13:57;21.53;;;14.73;;
8312;SDS011;4194;43.408;24.626;2024-01-15T08:16:22;19.90;;;14.30;;
8312;SDS011;4194;43.408;24.626;2024-01-15T08:18:51;19.37;;;13.67;;
8312;SDS011;4194;43.408;24.626;2024-01-15T08:21:16;23.37;;;14.73;;
8312;SDS011;4194;43.408;24.626;2024-01-15T08:23:42;20.47;;;12.70;;
8312;SDS011;4194;43.408;24.626;2024-01-15T08:26:08;20.37;;;13.13;;
8312;SDS011;4194;43.408;24.626;2024-01-15T08:28:34;20.23;;;12.53;;
8312;SDS011;4194;43.408;24.626;2024-01-15T08:30:59;20.60;;;13.47;;
8312;SDS011;4194;43.408;24.626;2024-01-15T08:33:25;19.80;;;12.83;;
8312;SDS011;4194;43.408;24.626;2024-01-15T08:35:51;24.53;;;14.30;;
8312;SDS011;4194;43.408;24.626;2024-01-15T08:38:18;31.00;;;13.77;;
8312;SDS011;4194;43.408;24.626;2024-01-15T08:40:44;26.17;;;14.10;;
8312;SDS011;4194;43.408;24.626;2024-01-15T08:43:09;22.43;;;13.57;;
8312;SDS011;4194;43.408;24.626;2024-01-15T08:45:35;25.20;;;13.67;;
8312;SDS011;4194;43.408;24.626;2024-01-15T08:48:01;28.73;;;17.07;;
8312;SDS011;4194;43.408;24.626;2024-01-15T08:50:27;29.43;;;15.87;;
8312;SDS011;4194;43.408;24.626;2024-01-15T08:52:53;25.43;;;14.77;;
8312;SDS011;4194;43.408;24.626;2024-01-15T08:55:19;24.80;;;14.17;;
8312;SDS011;4194;43.408;24.626;2024-01-15T08:57:47;27.73;;;13.53;;
8312;SDS011;4194;43.408;24.626;2024-01-15T09:00:13;23.37;;;14.17;;
8312;SDS011;4194;43.408;24.626;2024-01-15T09:02:39;24.60;;;14.43;;
8312;SDS011;4194;43.408;24.626;2024-01-15T09:05:05;20.13;;;12.23;;
8312;SDS011;4194;43.408;24.626;2024-01-15T09:07:31;21.43;;;12.37;;
8312;SDS011;4194;43.408;24.626;2024-01-15T09:09:57;23.93;;;13.50;;
8312;SDS011;4194;43.408;24.626;2024-01-15T09:12:24;21.90;;;14.67;;
8312;SDS011;4194;43.408;24.626;2024-01-15T09:14:53;23.20;;;13.93;;
8312;SDS011;4194;43.408;24.626;2024-01-15T09:17:19;26.23;;;14.60;;
8312;SDS011;4194;43.408;24.626;2024-01-15T09:19:46;26.60;;;15.73;;
8312;SDS011;4194;43.408;24.626;2024-01-15T09:22:12;31.67;;;17.77;;
8312;SDS011;4194;43.408;24.626;2024-01-15T09:24:42;33.30;;;20.53;;
8312;SDS011;4194;43.408;24.626;2024-01-15T09:27:08;42.23;;;26.73;;
8312;SDS011;4194;43.408;24.626;2024-01-15T09:29:33;59.27;;;35.77;;
8312;SDS011;4194;43.408;24.626;2024-01-15T09:32:01;60.10;;;37.10;;
8312;SDS011;4194;43.408;24.626;2024-01-15T09:34:29;54.67;;;33.40;;
8312;SDS011;4194;43.408;24.626;2024-01-15T09:36:55;51.10;;;31.43;;
8312;SDS011;4194;43.408;24.626;2024-01-15T09:39:20;59.00;;;33.63;;
8312;SDS011;4194;43.408;24.626;2024-01-15T09:41:48;53.77;;;31.57;;
8312;SDS011;4194;43.408;24.626;2024-01-15T09:44:14;18.83;;;10.73;;
8312;SDS011;4194;43.408;24.626;2024-01-15T09:46:41;18.67;;;10.67;;
8312;SDS011;4194;43.408;24.626;2024-01-15T09:49:08;24.40;;;12.00;;
8312;SDS011;4194;43.408;24.626;2024-01-15T09:51:34;27.10;;;13.53;;
8312;SDS011;4194;43.408;24.626;2024-01-15T09:54:01;22.37;;;12.40;;
8312;SDS011;4194;43.408;24.626;2024-01-15T09:56:29;22.30;;;10.50;;
8312;SDS011;4194;43.408;24.626;2024-01-15T09:58:56;25.10;;;11.03;;
8312;SDS011;4194;43.408;24.626;2024-01-15T10:01:23;19.23;;;8.23;;
8312;SDS011;4194;43.408;24.626;2024-01-15T10:03:49;14.50;;;5.00;;
8312;SDS011;4194;43.408;24.626;2024-01-15T10:06:16;17.30;;;5.97;;
8312;SDS011;4194;43.408;24.626;2024-01-15T10:08:43;9.97;;;5.90;;
8312;SDS011;4194;43.408;24.626;2024-01-15T10:11:13;15.77;;;6.27;;
8312;SDS011;4194;43.408;24.626;2024-01-15T10:13:39;16.33;;;6.50;;
8312;SDS011;4194;43.408;24.626;2024-01-15T10:16:05;8.40;;;4.30;;
8312;SDS011;4194;43.408;24.626;2024-01-15T10:18:31;13.73;;;4.17;;
8312;SDS011;4194;43.408;24.626;2024-01-15T10:20:57;4.27;;;2.67;;
8312;SDS011;4194;43.408;24.626;2024-01-15T10:23:24;4.13;;;2.37;;
8312;SDS011;4194;43.408;24.626;2024-01-15T10:25:49;6.07;;;3.87;;
8312;SDS011;4194;43.408;24.626;2024-01-15T10:28:18;4.27;;;2.73;;
8312;SDS011;4194;43.408;24.626;2024-01-15T10:30:44;3.13;;;2.53;;
8312;SDS011;4194;43.408;24.626;2024-01-15T10:33:10;6.70;;;2.73;;
8312;SDS011;4194;43.408;24.626;2024-01-15T10:35:37;6.10;;;3.83;;
8312;SDS011;4194;43.408;24.626;2024-01-15T10:38:03;6.57;;;4.47;;
8312;SDS011;4194;43.408;24.626;2024-01-15T10:40:31;8.17;;;3.93;;
8312;SDS011;4194;43.408;24.626;2024-01-15T10:42:57;8.90;;;5.83;;
8312;SDS011;4194;43.408;24.626;2024-01-15T10:45:23;12.43;;;6.67;;
8312;SDS011;4194;43.408;24.626;2024-01-15T10:47:49;9.67;;;6.07;;
8312;SDS011;4194;43.408;24.626;2024-01-15T10:50:15;12.20;;;5.47;;
8312;SDS011;4194;43.408;24.626;2024-01-15T10:52:41;6.30;;;3.50;;
8312;SDS011;4194;43.408;24.626;2024-01-15T10:55:08;10.67;;;4.43;;
8312;SDS011;4194;43.408;24.626;2024-01-15T10:57:38;13.40;;;5.60;;
8312;SDS011;4194;43.408;24.626;2024-01-15T11:00:04;12.80;;;6.93;;
8312;SDS011;4194;43.408;24.626;2024-01-15T11:02:34;14.47;;;7.03;;
8312;SDS011;4194;43.408;24.626;2024-01-15T11:05:02;9.10;;;6.67;;
8312;SDS011;4194;43.408;24.626;2024-01-15T11:07:28;12.83;;;5.57;;
8312;SDS011;4194;43.408;24.626;2024-01-15T11:09:55;17.23;;;7.80;;
8312;SDS011;4194;43.408;24.626;2024-01-15T11:12:23;15.80;;;8.53;;
8312;SDS011;4194;43.408;24.626;2024-01-15T11:14:49;35.83;;;20.40;;
8312;SDS011;4194;43.408;24.626;2024-01-15T11:17:15;28.83;;;15.87;;
8312;SDS011;4194;43.408;24.626;2024-01-15T11:19:43;31.90;;;15.37;;
8312;SDS011;4194;43.408;24.626;2024-01-15T11:22:46;23.70;;;11.90;;
8312;SDS011;4194;43.408;24.626;2024-01-15T11:24:56;15.87;;;7.93;;
8312;SDS011;4194;43.408;24.626;2024-01-15T11:27:42;17.90;;;8.27;;
8312;SDS011;4194;43.408;24.626;2024-01-15T11:30:09;17.57;;;9.17;;
8312;SDS011;4194;43.408;24.626;2024-01-15T11:32:38;17.83;;;9.47;;
8312;SDS011;4194;43.408;24.626;2024-01-15T11:35:12;55.47;;;22.60;;
8312;SDS011;4194;43.408;24.626;2024-01-15T11:40:18;53.47;;;19.97;;
8312;SDS011;4194;43.408;24.626;2024-01-15T11:42:45;60.93;;;27.83;;
8312;SDS011;4194;43.408;24.626;2024-01-15T11:45:11;59.23;;;26.60;;
8312;SDS011;4194;43.408;24.626;2024-01-15T11:50:11;87.47;;;29.93;;
8312;SDS011;4194;43.408;24.626;2024-01-15T11:52:38;67.83;;;28.33;;
8312;SDS011;4194;43.408;24.626;2024-01-15T12:00:17;68.83;;;29.57;;
8312;SDS011;4194;43.408;24.626;2024-01-15T12:02:43;75.23;;;32.53;;
8312;SDS011;4194;43.408;24.626;2024-01-15T12:05:14;93.60;;;34.97;;
8312;SDS011;4194;43.408;24.626;2024-01-15T12:07:42;94.97;;;33.77;;
8312;SDS011;4194;43.408;24.626;2024-01-15T12:10:12;94.90;;;33.37;;
8312;SDS011;4194;43.408;24.626;2024-01-15T12:15:24;67.67;;;32.83;;
8312;SDS011;4194;43.408;24.626;2024-01-15T12:17:51;71.90;;;32.87;;
8312;SDS011;4194;43.408;24.626;2024-01-15T12:20:17;77.53;;;32.97;;
8312;SDS011;4194;43.408;24.626;2024-01-15T12:22:43;83.90;;;34.80;;
8312;SDS011;4194;43.408;24.626;2024-01-15T12:25:09;87.67;;;34.33;;
8312;SDS011;4194;43.408;24.626;2024-01-15T12:27:35;81.53;;;33.60;;
8312;SDS011;4194;43.408;24.626;2024-01-15T12:30:01;74.83;;;34.70;;
8312;SDS011;4194;43.408;24.626;2024-01-15T12:32:27;71.37;;;33.93;;
8312;SDS011;4194;43.408;24.626;2024-01-15T12:34:54;74.63;;;33.87;;
8312;SDS011;4194;43.408;24.626;2024-01-15T12:37:20;65.67;;;35.07;;
8312;SDS011;4194;43.408;24.626;2024-01-15T12:39:46;91.17;;;40.17;;
8312;SDS011;4194;43.408;24.626;2024-01-15T12:42:16;91.40;;;40.53;;
8312;SDS011;4194;43.408;24.626;2024-01-15T12:44:42;96.13;;;37.73;;
8312;SDS011;4194;43.408;24.626;2024-01-15T12:47:09;119.00;;;51.40;;
8312;SDS011;4194;43.408;24.626;2024-01-15T12:49:36;112.23;;;50.10;;
8312;SDS011;4194;43.408;24.626;2024-01-15T12:52:02;117.83;;;53.23;;
8312;SDS011;4194;43.408;24.626;2024-01-15T12:54:28;120.77;;;51.40;;
8312;SDS011;4194;43.408;24.626;2024-01-15T12:56:54;101.50;;;42.80;;
8312;SDS011;4194;43.408;24.626;2024-01-15T12:59:19;76.03;;;37.23;;
8312;SDS011;4194;43.408;24.626;2024-01-15T13:01:45;68.87;;;33.93;;
8312;SDS011;4194;43.408;24.626;2024-01-15T13:04:11;64.27;;;33.13;;
8312;SDS011;4194;43.408;24.626;2024-01-15T13:06:46;68.20;;;32.07;;
8312;SDS011;4194;43.408;24.626;2024-01-15T13:09:11;56.33;;;29.03;;
8312;SDS011;4194;43.408;24.626;2024-01-15T13:11:37;66.60;;;27.60;;
8312;SDS011;4194;43.408;24.626;2024-01-15T13:14:03;59.97;;;28.10;;
8312;SDS011;4194;43.408;24.626;2024-01-15T13:16:28;54.00;;;24.50;;
8312;SDS011;4194;43.408;24.626;2024-01-15T13:18:54;58.47;;;26.67;;
8312;SDS011;4194;43.408;24.626;2024-01-15T13:21:21;54.30;;;23.57;;
8312;SDS011;4194;43.408;24.626;2024-01-15T13:23:48;55.13;;;24.07;;
8312;SDS011;4194;43.408;24.626;2024-01-15T13:26:14;32.23;;;19.27;;
8312;SDS011;4194;43.408;24.626;2024-01-15T13:28:40;44.27;;;20.03;;
8312;SDS011;4194;43.408;24.626;2024-01-15T13:31:05;38.03;;;20.03;;
8312;SDS011;4194;43.408;24.626;2024-01-15T13:33:31;35.90;;;18.20;;
8312;SDS011;4194;43.408;24.626;2024-01-15T13:35:57;28.60;;;16.87;;
8312;SDS011;4194;43.408;24.626;2024-01-15T13:38:23;32.17;;;17.30;;
8312;SDS011;4194;43.408;24.626;2024-01-15T13:40:49;27.77;;;16.07;;
8312;SDS011;4194;43.408;24.626;2024-01-15T13:43:15;31.57;;;16.20;;
8312;SDS011;4194;43.408;24.626;2024-01-15T13:45:41;30.50;;;17.03;;
8312;SDS011;4194;43.408;24.626;2024-01-15T13:48:07;27.97;;;15.43;;
8312;SDS011;4194;43.408;24.626;2024-01-15T13:50:36;24.30;;;13.13;;
8312;SDS011;4194;43.408;24.626;2024-01-15T13:53:02;23.17;;;13.60;;
8312;SDS011;4194;43.408;24.626;2024-01-15T13:55:31;24.67;;;13.03;;
8312;SDS011;4194;43.408;24.626;2024-01-15T13:57:57;22.43;;;11.13;;
8312;SDS011;4194;43.408;24.626;2024-01-15T14:00:23;18.67;;;10.53;;
8312;SDS011;4194;43.408;24.626;2024-01-15T14:02:48;16.87;;;9.33;;
8312;SDS011;4194;43.408;24.626;2024-01-15T14:05:14;18.70;;;9.87;;
8312;SDS011;4194;43.408;24.626;2024-01-15T14:07:41;24.57;;;13.30;;
8312;SDS011;4194;43.408;24.626;2024-01-15T14:10:08;25.13;;;13.87;;
8312;SDS011;4194;43.408;24.626;2024-01-15T14:12:35;28.43;;;16.47;;
8312;SDS011;4194;43.408;24.626;2024-01-15T14:15:05;29.53;;;14.13;;
8312;SDS011;4194;43.408;24.626;2024-01-15T14:17:31;30.73;;;17.57;;
8312;SDS011;4194;43.408;24.626;2024-01-15T14:19:57;33.90;;;17.73;;
8312;SDS011;4194;43.408;24.626;2024-01-15T14:22:22;35.27;;;19.47;;
8312;SDS011;4194;43.408;24.626;2024-01-15T14:24:48;36.53;;;19.37;;
8312;SDS011;4194;43.408;24.626;2024-01-15T14:27:14;37.63;;;19.90;;
8312;SDS011;4194;43.408;24.626;2024-01-15T14:29:40;35.73;;;17.90;;
8312;SDS011;4194;43.408;24.626;2024-01-15T14:32:06;48.10;;;17.83;;
8312;SDS011;4194;43.408;24.626;2024-01-15T14:34:32;27.50;;;17.10;;
8312;SDS011;4194;43.408;24.626;2024-01-15T14:36:57;34.70;;;15.67;;
8312;SDS011;4194;43.408;24.626;2024-01-15T14:39:23;30.57;;;16.40;;
8312;SDS011;4194;43.408;24.626;2024-01-15T14:41:49;37.10;;;17.23;;
8312;SDS011;4194;43.408;24.626;2024-01-15T14:44:15;38.83;;;18.07;;
8312;SDS011;4194;43.408;24.626;2024-01-15T14:46:41;32.47;;;18.80;;
8312;SDS011;4194;43.408;24.626;2024-01-15T14:49:06;34.33;;;19.10;;
8312;SDS011;4194;43.408;24.626;2024-01-15T14:51:32;36.57;;;20.20;;